createdAt,value
2016-07-19T00:00:06.951Z,0
2016-07-19T00:01:06.932Z,0
2016-07-19T00:02:06.913Z,0
2016-07-19T00:03:06.895Z,0
2016-07-19T00:04:06.881Z,0
2016-07-19T00:05:06.859Z,0
2016-07-19T00:06:06.837Z,0
2016-07-19T00:07:06.824Z,0
2016-07-19T00:08:06.807Z,0
2016-07-19T00:09:06.789Z,0
2016-07-19T00:10:06.771Z,0
2016-07-19T00:11:06.751Z,0
2016-07-19T00:12:06.735Z,0
2016-07-19T00:13:06.712Z,0
2016-07-19T00:14:06.698Z,0
2016-07-19T00:15:06.691Z,0
2016-07-19T00:16:06.666Z,0
2016-07-19T00:17:06.651Z,0
2016-07-19T00:18:06.639Z,0
2016-07-19T00:19:06.610Z,0
2016-07-19T00:20:06.595Z,0
2016-07-19T00:21:06.578Z,0
2016-07-19T00:22:06.561Z,0
2016-07-19T00:23:06.538Z,0
2016-07-19T00:24:06.520Z,0
2016-07-19T00:25:06.502Z,0
2016-07-19T00:26:06.489Z,0
2016-07-19T00:27:06.467Z,0
2016-07-19T00:28:06.448Z,0
2016-07-19T00:29:06.448Z,0
2016-07-19T00:30:06.414Z,0
2016-07-19T00:31:06.391Z,0
2016-07-19T00:32:06.379Z,0
2016-07-19T00:33:06.363Z,0
2016-07-19T00:34:06.342Z,0
2016-07-19T00:35:06.323Z,0
2016-07-19T00:36:06.317Z,0
2016-07-19T00:37:06.286Z,0
2016-07-19T00:38:06.273Z,0
2016-07-19T00:39:06.249Z,0
2016-07-19T00:40:06.237Z,0
2016-07-19T00:41:06.220Z,0
2016-07-19T00:42:06.206Z,0
2016-07-19T00:43:06.185Z,0
2016-07-19T00:44:06.160Z,0
2016-07-19T00:45:06.170Z,0
2016-07-19T00:46:06.123Z,0
2016-07-19T00:47:06.110Z,0
2016-07-19T00:48:06.091Z,0
2016-07-19T00:49:06.074Z,0
2016-07-19T00:50:06.062Z,0
2016-07-19T00:51:06.033Z,0
2016-07-19T00:52:06.021Z,0
2016-07-19T00:53:06.002Z,0
2016-07-19T00:54:05.983Z,0
2016-07-19T00:55:05.965Z,0
2016-07-19T00:56:05.947Z,0
2016-07-19T00:57:05.929Z,0
2016-07-19T00:58:05.908Z,0
2016-07-19T00:59:05.895Z,0
2016-07-19T01:00:05.873Z,0
2016-07-19T01:01:05.852Z,0
2016-07-19T01:02:05.840Z,0
2016-07-19T01:03:05.817Z,0
2016-07-19T01:04:05.807Z,0
2016-07-19T01:05:06.475Z,0
2016-07-19T01:06:05.768Z,0
2016-07-19T01:07:05.753Z,0
2016-07-19T01:08:05.727Z,0
2016-07-19T01:09:05.704Z,0
2016-07-19T01:10:05.694Z,0
2016-07-19T01:11:05.666Z,0
2016-07-19T01:12:05.654Z,0
2016-07-19T01:13:05.630Z,0
2016-07-19T01:14:05.616Z,0
2016-07-19T01:15:05.595Z,0
2016-07-19T01:16:05.593Z,0
2016-07-19T01:17:05.560Z,0
2016-07-19T01:18:05.539Z,0
2016-07-19T01:19:05.524Z,0
2016-07-19T01:20:05.502Z,0
2016-07-19T01:21:05.489Z,0
2016-07-19T01:22:05.466Z,0
2016-07-19T01:23:05.458Z,0
2016-07-19T01:24:05.430Z,0
2016-07-19T01:25:05.414Z,0
2016-07-19T01:26:05.396Z,0
2016-07-19T01:27:05.375Z,0
2016-07-19T01:28:05.364Z,0
2016-07-19T01:29:05.340Z,0
2016-07-19T01:30:05.321Z,0
2016-07-19T01:31:05.990Z,0
2016-07-19T01:32:05.285Z,0
2016-07-19T01:33:05.266Z,0
2016-07-19T01:34:05.258Z,0
2016-07-19T01:35:05.228Z,0
2016-07-19T01:36:05.212Z,0
2016-07-19T01:37:05.190Z,0
2016-07-19T01:38:05.172Z,0
2016-07-19T01:39:05.153Z,0
2016-07-19T01:40:05.135Z,0
2016-07-19T01:41:05.116Z,0
2016-07-19T01:42:05.098Z,0
2016-07-19T01:43:05.082Z,0
2016-07-19T01:44:05.056Z,0
2016-07-19T01:45:05.055Z,0
2016-07-19T01:46:05.025Z,0
2016-07-19T01:47:05.008Z,0
2016-07-19T01:48:04.978Z,0
2016-07-19T01:49:04.971Z,0
2016-07-19T01:50:04.944Z,0
2016-07-19T01:51:04.935Z,0
2016-07-19T01:52:04.907Z,0
2016-07-19T01:53:04.886Z,0
2016-07-19T01:54:04.882Z,0
2016-07-19T01:55:04.850Z,0
2016-07-19T01:56:04.835Z,0
2016-07-19T01:57:04.817Z,0
2016-07-19T01:58:04.797Z,0
2016-07-19T01:59:04.771Z,0
2016-07-19T02:00:05.449Z,0
2016-07-19T02:01:04.743Z,0
2016-07-19T02:02:04.724Z,0
2016-07-19T02:03:04.708Z,0
2016-07-19T02:04:04.677Z,0
2016-07-19T02:05:04.670Z,0
2016-07-19T02:06:04.641Z,0
2016-07-19T02:07:04.626Z,0
2016-07-19T02:08:04.603Z,0
2016-07-19T02:09:04.588Z,0
2016-07-19T02:10:04.608Z,0
2016-07-19T02:11:04.547Z,0
2016-07-19T02:12:04.539Z,0
2016-07-19T02:13:05.201Z,0
2016-07-19T02:14:04.506Z,0
2016-07-19T02:15:04.470Z,0
2016-07-19T02:16:04.456Z,0
2016-07-19T02:17:04.432Z,0
2016-07-19T02:18:04.418Z,0
2016-07-19T02:19:04.399Z,0
2016-07-19T02:20:04.382Z,0
2016-07-19T02:21:04.356Z,0
2016-07-19T02:22:04.347Z,0
2016-07-19T02:23:04.320Z,0
2016-07-19T02:24:04.298Z,0
2016-07-19T02:25:04.284Z,0
2016-07-19T02:26:04.260Z,0
2016-07-19T02:27:04.249Z,0
2016-07-19T02:28:04.226Z,0
2016-07-19T02:29:04.204Z,0
2016-07-19T02:30:04.189Z,0
2016-07-19T02:31:04.166Z,0
2016-07-19T02:32:04.143Z,0
2016-07-19T02:33:04.126Z,0
2016-07-19T02:34:04.106Z,0
2016-07-19T02:35:04.099Z,0
2016-07-19T02:36:04.070Z,0
2016-07-19T02:37:04.047Z,0
2016-07-19T02:38:04.031Z,0
2016-07-19T02:39:04.010Z,0
2016-07-19T02:40:03.993Z,0
2016-07-19T02:41:03.970Z,0
2016-07-19T02:42:03.954Z,0
2016-07-19T02:43:03.930Z,0
2016-07-19T02:44:03.917Z,0
2016-07-19T02:45:03.895Z,0
2016-07-19T02:46:03.875Z,0
2016-07-19T02:47:03.857Z,0
2016-07-19T02:48:03.839Z,0
2016-07-19T02:49:03.823Z,0
2016-07-19T02:50:03.800Z,0
2016-07-19T02:51:03.788Z,0
2016-07-19T02:52:03.761Z,0
2016-07-19T02:53:03.743Z,0
2016-07-19T02:54:03.725Z,0
2016-07-19T02:55:03.703Z,0
2016-07-19T02:56:03.684Z,0
2016-07-19T02:57:03.670Z,0
2016-07-19T02:58:03.638Z,0
2016-07-19T02:59:03.635Z,0
2016-07-19T03:00:03.606Z,0
2016-07-19T03:01:03.586Z,0
2016-07-19T03:02:03.567Z,0
2016-07-19T03:03:03.543Z,0
2016-07-19T03:04:03.526Z,0
2016-07-19T03:05:03.503Z,0
2016-07-19T03:06:03.489Z,0
2016-07-19T03:07:03.471Z,0
2016-07-19T03:08:03.449Z,0
2016-07-19T03:09:03.431Z,0
2016-07-19T03:10:03.415Z,0
2016-07-19T03:11:03.445Z,0
2016-07-19T03:12:03.380Z,0
2016-07-19T03:13:03.352Z,0
2016-07-19T03:14:03.330Z,0
2016-07-19T03:15:03.311Z,0
2016-07-19T03:16:03.287Z,0
2016-07-19T03:17:03.284Z,0
2016-07-19T03:18:03.249Z,5
2016-07-19T03:19:03.246Z,5
2016-07-19T03:20:03.209Z,5
2016-07-19T03:21:03.196Z,5
2016-07-19T03:22:03.171Z,5
2016-07-19T03:23:03.154Z,5
2016-07-19T03:24:03.132Z,5
2016-07-19T03:25:03.115Z,10
2016-07-19T03:26:03.106Z,10
2016-07-19T03:27:03.073Z,10
2016-07-19T03:28:03.058Z,10
2016-07-19T03:29:03.038Z,10
2016-07-19T03:30:03.019Z,15
2016-07-19T03:31:02.997Z,15
2016-07-19T03:32:02.977Z,15
2016-07-19T03:33:02.960Z,20
2016-07-19T03:34:02.943Z,20
2016-07-19T03:35:02.924Z,20
2016-07-19T03:36:02.898Z,25
2016-07-19T03:37:02.877Z,25
2016-07-19T03:38:02.855Z,25
2016-07-19T03:39:02.845Z,30
2016-07-19T03:40:02.816Z,30
2016-07-19T03:41:02.798Z,30
2016-07-19T03:42:02.779Z,35
2016-07-19T03:43:03.449Z,35
2016-07-19T03:44:02.743Z,40
2016-07-19T03:45:02.717Z,40
2016-07-19T03:46:02.703Z,45
2016-07-19T03:47:02.678Z,45
2016-07-19T03:48:02.664Z,50
2016-07-19T03:49:02.641Z,50
2016-07-19T03:50:02.621Z,55
2016-07-19T03:51:02.602Z,55
2016-07-19T03:52:02.580Z,60
2016-07-19T03:53:02.581Z,60
2016-07-19T03:54:02.543Z,65
2016-07-19T03:55:02.521Z,65
2016-07-19T03:56:02.504Z,70
2016-07-19T03:57:02.481Z,70
2016-07-19T03:58:02.467Z,75
2016-07-19T03:59:02.452Z,75
2016-07-19T04:00:02.428Z,80
2016-07-19T04:01:02.413Z,85
2016-07-19T04:02:02.387Z,85
2016-07-19T04:03:02.369Z,90
2016-07-19T04:04:02.348Z,90
2016-07-19T04:05:02.329Z,95
2016-07-19T04:06:02.305Z,100
2016-07-19T04:07:02.290Z,100
2016-07-19T04:08:02.272Z,105
2016-07-19T04:09:02.252Z,105
2016-07-19T04:10:02.229Z,110
2016-07-19T04:11:02.211Z,115
2016-07-19T04:12:02.187Z,115
2016-07-19T04:13:02.171Z,120
2016-07-19T04:14:02.154Z,120
2016-07-19T04:15:02.127Z,125
2016-07-19T04:16:02.113Z,130
2016-07-19T04:17:02.087Z,135
2016-07-19T04:18:02.071Z,135
2016-07-19T04:19:02.051Z,135
2016-07-19T04:20:02.038Z,140
2016-07-19T04:21:02.011Z,140
2016-07-19T04:22:01.998Z,145
2016-07-19T04:23:01.971Z,145
2016-07-19T04:24:01.957Z,150
2016-07-19T04:25:01.934Z,150
2016-07-19T04:26:01.920Z,155
2016-07-19T04:27:01.895Z,155
2016-07-19T04:28:01.880Z,160
2016-07-19T04:29:01.859Z,165
2016-07-19T04:30:01.849Z,165
2016-07-19T04:31:01.821Z,170
2016-07-19T04:32:01.798Z,170
2016-07-19T04:33:01.789Z,175
2016-07-19T04:34:01.757Z,175
2016-07-19T04:35:01.743Z,180
2016-07-19T04:36:01.729Z,180
2016-07-19T04:37:01.702Z,185
2016-07-19T04:38:01.687Z,185
2016-07-19T04:39:01.668Z,190
2016-07-19T04:40:01.691Z,190
2016-07-19T04:41:01.624Z,195
2016-07-19T04:42:01.611Z,195
2016-07-19T04:43:02.326Z,200
2016-07-19T04:44:01.571Z,200
2016-07-19T04:45:01.548Z,200
2016-07-19T04:46:01.534Z,205
2016-07-19T04:47:01.578Z,205
2016-07-19T04:48:01.494Z,210
2016-07-19T04:49:01.529Z,210
2016-07-19T04:50:01.468Z,215
2016-07-19T04:51:01.437Z,215
2016-07-19T04:52:01.772Z,220
2016-07-19T04:53:01.405Z,220
2016-07-19T04:54:01.376Z,225
2016-07-19T04:55:01.360Z,225
2016-07-19T04:56:01.337Z,225
2016-07-19T04:57:01.322Z,230
2016-07-19T04:58:01.298Z,230
2016-07-19T04:59:01.287Z,235
2016-07-19T05:00:01.304Z,235
2016-07-19T05:01:01.270Z,240
2016-07-19T05:02:01.230Z,240
2016-07-19T05:03:01.207Z,245
2016-07-19T05:04:01.191Z,245
2016-07-19T05:05:01.395Z,250
2016-07-19T05:06:01.152Z,250
2016-07-19T05:07:01.859Z,255
2016-07-19T05:08:01.116Z,250
2016-07-19T05:09:01.090Z,255
2016-07-19T05:10:01.079Z,260
2016-07-19T05:11:01.283Z,265
2016-07-19T05:12:01.038Z,265
2016-07-19T05:13:01.065Z,270
2016-07-19T05:14:01.003Z,275
2016-07-19T05:15:00.976Z,280
2016-07-19T05:16:00.967Z,285
2016-07-19T05:17:00.994Z,290
2016-07-19T05:18:01.714Z,290
2016-07-19T05:19:00.904Z,295
2016-07-19T05:20:00.883Z,300
2016-07-19T05:21:00.876Z,305
2016-07-19T05:22:00.847Z,310
2016-07-19T05:23:00.832Z,305
2016-07-19T05:24:00.874Z,310
2016-07-19T05:25:00.795Z,315
2016-07-19T05:26:00.778Z,320
2016-07-19T05:27:00.760Z,320
2016-07-19T05:28:00.741Z,325
2016-07-19T05:29:00.722Z,325
2016-07-19T05:30:00.705Z,330
2016-07-19T05:31:00.686Z,340
2016-07-19T05:32:00.668Z,370
2016-07-19T05:33:00.649Z,410
2016-07-19T05:34:00.820Z,430
2016-07-19T05:35:00.614Z,465
2016-07-19T05:36:00.694Z,485
2016-07-19T05:37:00.583Z,425
2016-07-19T05:38:00.569Z,365
2016-07-19T05:39:00.543Z,355
2016-07-19T05:40:00.529Z,360
2016-07-19T05:41:00.504Z,380
2016-07-19T05:42:00.492Z,395
2016-07-19T05:43:01.207Z,390
2016-07-19T05:44:00.458Z,385
2016-07-19T05:45:00.434Z,380
2016-07-19T05:46:00.434Z,380
2016-07-19T05:47:00.400Z,380
2016-07-19T05:48:00.389Z,380
2016-07-19T05:49:00.377Z,380
2016-07-19T05:50:00.353Z,385
2016-07-19T05:51:00.340Z,385
2016-07-19T05:52:00.319Z,390
2016-07-19T05:53:00.306Z,395
2016-07-19T05:54:00.289Z,405
2016-07-19T05:55:00.276Z,400
2016-07-19T05:56:00.272Z,390
2016-07-19T05:57:00.282Z,385
2016-07-19T05:58:01.144Z,380
2016-07-19T05:59:00.207Z,380
2016-07-19T06:00:00.446Z,380
2016-07-19T06:01:00.177Z,380
2016-07-19T06:02:00.168Z,380
2016-07-19T06:03:00.841Z,385
2016-07-19T06:04:00.134Z,385
2016-07-19T06:05:00.132Z,390
2016-07-19T06:06:00.106Z,390
2016-07-19T06:07:00.091Z,395
2016-07-19T06:08:00.077Z,395
2016-07-19T06:09:00.062Z,395
2016-07-19T06:10:00.048Z,395
2016-07-19T06:11:00.039Z,400
2016-07-19T06:12:00.715Z,400
2016-07-19T06:13:00.004Z,405
2016-07-19T06:14:00.014Z,405
2016-07-19T06:15:00.919Z,410
2016-07-19T06:16:00.755Z,415
2016-07-19T06:16:59.950Z,430
2016-07-19T06:18:00.394Z,580
2016-07-19T06:18:59.946Z,950
2016-07-19T06:19:59.934Z,1205
2016-07-19T06:21:00.618Z,1225
2016-07-19T06:21:59.922Z,1235
2016-07-19T06:22:59.931Z,1230
2016-07-19T06:23:59.987Z,1235
2016-07-19T06:24:59.942Z,1245
2016-07-19T06:25:59.826Z,1270
2016-07-19T06:26:59.825Z,1285
2016-07-19T06:27:59.864Z,1305
2016-07-19T06:29:00.555Z,1320
2016-07-19T06:29:59.819Z,1325
2016-07-19T06:31:01.216Z,1350
2016-07-19T06:31:59.759Z,1345
2016-07-19T06:32:59.821Z,1345
2016-07-19T06:34:01.935Z,1405
2016-07-19T06:35:00.617Z,1390
2016-07-19T06:35:59.744Z,1370
2016-07-19T06:37:00.095Z,1410
2016-07-19T06:38:00.301Z,1425
2016-07-19T06:38:59.693Z,1415
2016-07-19T06:40:01.952Z,1410
2016-07-19T06:41:00.073Z,1400
2016-07-19T06:41:59.678Z,1410
2016-07-19T06:42:59.675Z,1405
2016-07-19T06:43:59.684Z,1420
2016-07-19T06:44:59.622Z,1465
2016-07-19T06:45:59.604Z,1475
2016-07-19T06:46:59.601Z,1450
2016-07-19T06:47:59.596Z,1450
2016-07-19T06:49:00.325Z,1400
2016-07-19T06:49:59.569Z,1415
2016-07-19T06:50:59.764Z,1415
2016-07-19T06:51:59.593Z,1440
2016-07-19T06:52:59.542Z,1390
2016-07-19T06:53:59.537Z,1360
2016-07-19T06:54:59.609Z,1370
2016-07-19T06:55:59.571Z,1375
2016-07-19T06:56:59.520Z,1370
2016-07-19T06:58:00.209Z,1350
2016-07-19T06:58:59.500Z,1310
2016-07-19T06:59:59.986Z,1295
2016-07-19T07:01:01.027Z,1250
2016-07-19T07:02:00.010Z,1200
2016-07-19T07:03:00.004Z,1210
2016-07-19T07:03:59.709Z,1170
2016-07-19T07:05:01.154Z,1095
2016-07-19T07:05:59.666Z,1055
2016-07-19T07:06:59.622Z,1000
2016-07-19T07:07:59.653Z,925
2016-07-19T07:08:59.586Z,875
2016-07-19T07:09:59.840Z,810
2016-07-19T07:11:00.250Z,765
2016-07-19T07:11:59.412Z,740
2016-07-19T07:12:59.525Z,715
2016-07-19T07:13:59.975Z,715
2016-07-19T07:14:59.964Z,725
2016-07-19T07:16:00.156Z,765
2016-07-19T07:17:00.116Z,1385
2016-07-19T07:17:59.537Z,2170
2016-07-19T07:19:00.214Z,2395
2016-07-19T07:19:59.517Z,2060
2016-07-19T07:21:01.287Z,2195
2016-07-19T07:22:00.984Z,2240
2016-07-19T07:23:01.531Z,2160
2016-07-19T07:24:01.067Z,2120
2016-07-19T07:25:01.685Z,2020
2016-07-19T07:26:00.005Z,1960
2016-07-19T07:27:01.197Z,1950
2016-07-19T07:28:01.693Z,1850
2016-07-19T07:29:01.610Z,1830
2016-07-19T07:30:00.158Z,1835
2016-07-19T07:31:02.124Z,1785
2016-07-19T07:32:00.421Z,1735
2016-07-19T07:33:01.704Z,1720
2016-07-19T07:34:00.061Z,1750
2016-07-19T07:34:59.680Z,1810
2016-07-19T07:35:59.606Z,1775
2016-07-19T07:36:59.326Z,1760
2016-07-19T07:38:00.018Z,1790
2016-07-19T07:38:59.913Z,1775
2016-07-19T07:39:59.273Z,1870
2016-07-19T07:41:01.376Z,1910
2016-07-19T07:41:59.918Z,1885
2016-07-19T07:42:59.973Z,1965
2016-07-19T07:43:59.193Z,1920
2016-07-19T07:45:01.082Z,1940
2016-07-19T07:45:59.579Z,1965
2016-07-19T07:46:59.680Z,1945
2016-07-19T07:48:01.938Z,1925
2016-07-19T07:49:01.439Z,1980
2016-07-19T07:49:59.193Z,1950
2016-07-19T07:50:59.466Z,1945
2016-07-19T07:52:00.052Z,2015
2016-07-19T07:52:59.994Z,2065
2016-07-19T07:54:00.035Z,2025
2016-07-19T07:55:00.275Z,1975
2016-07-19T07:55:59.987Z,2025
2016-07-19T07:56:59.156Z,2075
2016-07-19T07:57:59.141Z,2105
2016-07-19T07:58:59.280Z,2100
2016-07-19T07:59:59.248Z,2035
2016-07-19T08:00:59.846Z,2135
2016-07-19T08:02:01.924Z,2110
2016-07-19T08:03:01.354Z,2050
2016-07-19T08:04:00.700Z,2090
2016-07-19T08:04:59.822Z,2055
2016-07-19T08:06:02.058Z,2100
2016-07-19T08:06:59.372Z,2095
2016-07-19T08:07:59.359Z,2115
2016-07-19T08:08:59.099Z,2225
2016-07-19T08:10:00.528Z,2180
2016-07-19T08:10:59.202Z,2155
2016-07-19T08:12:01.333Z,2280
2016-07-19T08:13:01.089Z,2220
2016-07-19T08:13:59.061Z,2195
2016-07-19T08:14:59.672Z,2150
2016-07-19T08:16:01.171Z,2225
2016-07-19T08:17:00.443Z,2295
2016-07-19T08:17:59.863Z,2380
2016-07-19T08:18:59.185Z,2370
2016-07-19T08:20:00.740Z,2395
2016-07-19T08:20:59.036Z,2465
2016-07-19T08:21:59.257Z,2380
2016-07-19T08:22:59.548Z,2400
2016-07-19T08:24:02.191Z,2480
2016-07-19T08:24:59.418Z,2420
2016-07-19T08:25:59.135Z,2460
2016-07-19T08:27:00.200Z,2405
2016-07-19T08:28:01.363Z,2385
2016-07-19T08:29:00.953Z,2410
2016-07-19T08:30:00.235Z,2405
2016-07-19T08:30:59.490Z,2345
2016-07-19T08:32:00.254Z,2385
2016-07-19T08:32:59.992Z,2515
2016-07-19T08:33:59.508Z,2450
2016-07-19T08:34:59.728Z,2430
2016-07-19T08:36:00.373Z,2505
2016-07-19T08:36:59.723Z,2460
2016-07-19T08:38:00.204Z,2465
2016-07-19T08:39:00.443Z,2405
2016-07-19T08:39:59.970Z,2420
2016-07-19T08:40:59.106Z,2505
2016-07-19T08:42:00.539Z,2515
2016-07-19T08:42:59.345Z,2480
2016-07-19T08:44:00.981Z,2400
2016-07-19T08:44:59.345Z,2445
2016-07-19T08:45:59.972Z,2550
2016-07-19T08:46:59.053Z,2475
2016-07-19T08:48:00.916Z,2365
2016-07-19T08:48:59.025Z,2345
2016-07-19T08:49:58.983Z,2260
2016-07-19T08:50:58.975Z,2310
2016-07-19T08:51:58.975Z,2365
2016-07-19T08:52:59.350Z,2400
2016-07-19T08:53:59.535Z,2375
2016-07-19T08:54:59.788Z,2445
2016-07-19T08:55:58.993Z,2530
2016-07-19T08:56:58.972Z,2485
2016-07-19T08:57:58.967Z,2460
2016-07-19T08:58:59.457Z,2540
2016-07-19T08:59:59.827Z,2600
2016-07-19T09:00:58.967Z,2490
2016-07-19T09:01:58.985Z,2500
2016-07-19T09:02:58.960Z,2595
2016-07-19T09:03:58.959Z,2655
2016-07-19T09:04:58.953Z,2530
2016-07-19T09:05:59.205Z,2580
2016-07-19T09:06:58.970Z,2705
2016-07-19T09:07:58.950Z,2660
2016-07-19T09:08:59.004Z,2620
2016-07-19T09:10:00.609Z,2585
2016-07-19T09:10:59.516Z,2545
2016-07-19T09:11:58.954Z,2530
2016-07-19T09:12:59.051Z,2495
2016-07-19T09:13:59.494Z,2490
2016-07-19T09:14:59.208Z,2490
2016-07-19T09:15:59.218Z,2450
2016-07-19T09:16:59.239Z,2445
2016-07-19T09:17:59.947Z,2465
2016-07-19T09:18:59.019Z,2565
2016-07-19T09:19:58.951Z,2575
2016-07-19T09:20:58.947Z,2530
2016-07-19T09:21:59.160Z,2540
2016-07-19T09:22:58.945Z,2515
2016-07-19T09:23:58.970Z,2510
2016-07-19T09:24:58.943Z,2510
2016-07-19T09:26:00.798Z,2430
2016-07-19T09:26:59.720Z,2460
2016-07-19T09:28:00.188Z,2550
2016-07-19T09:28:59.127Z,2500
2016-07-19T09:29:59.047Z,2440
2016-07-19T09:30:59.842Z,2435
2016-07-19T09:31:58.941Z,2515
2016-07-19T09:32:59.801Z,2530
2016-07-19T09:33:58.936Z,2485
2016-07-19T09:34:58.939Z,2530
2016-07-19T09:35:58.957Z,2625
2016-07-19T09:37:00.653Z,2615
2016-07-19T09:37:58.989Z,2555
2016-07-19T09:38:59.113Z,2480
2016-07-19T09:39:58.947Z,2500
2016-07-19T09:41:01.687Z,2450
2016-07-19T09:41:59.818Z,2490
2016-07-19T09:42:59.597Z,2540
2016-07-19T09:44:01.108Z,2630
2016-07-19T09:44:59.581Z,2685
2016-07-19T09:45:59.538Z,2630
2016-07-19T09:47:00.479Z,2560
2016-07-19T09:48:00.240Z,2605
2016-07-19T09:48:59.986Z,2705
2016-07-19T09:50:00.869Z,2735
2016-07-19T09:50:58.962Z,2610
2016-07-19T09:51:58.964Z,2555
2016-07-19T09:52:59.154Z,2620
2016-07-19T09:53:59.179Z,2560
2016-07-19T09:55:00.159Z,2485
2016-07-19T09:55:59.409Z,2545
2016-07-19T09:56:58.947Z,2630
2016-07-19T09:58:00.881Z,2700
2016-07-19T09:58:59.087Z,2690
2016-07-19T09:59:58.944Z,2725
2016-07-19T10:00:59.552Z,2645
2016-07-19T10:01:59.123Z,2600
2016-07-19T10:03:00.122Z,2660
2016-07-19T10:03:58.965Z,2610
2016-07-19T10:04:59.212Z,2730
2016-07-19T10:05:58.948Z,2775
2016-07-19T10:06:59.063Z,2775
2016-07-19T10:07:58.961Z,2750
2016-07-19T10:08:58.955Z,2775
2016-07-19T10:09:58.975Z,2840
2016-07-19T10:10:59.034Z,2755
2016-07-19T10:11:58.988Z,2805
2016-07-19T10:13:00.449Z,2855
2016-07-19T10:13:58.990Z,2795
2016-07-19T10:14:58.959Z,2820
2016-07-19T10:15:59.043Z,2735
2016-07-19T10:16:59.036Z,2635
2016-07-19T10:18:00.352Z,2790
2016-07-19T10:18:59.003Z,2820
2016-07-19T10:19:59.753Z,2795
2016-07-19T10:20:59.578Z,2815
2016-07-19T10:21:58.965Z,2855
2016-07-19T10:22:59.388Z,2815
2016-07-19T10:23:59.166Z,2820
2016-07-19T10:24:59.664Z,2725
2016-07-19T10:25:58.969Z,2710
2016-07-19T10:26:59.538Z,2965
2016-07-19T10:27:59.743Z,2980
2016-07-19T10:28:59.086Z,2960
2016-07-19T10:29:59.056Z,2845
2016-07-19T10:30:58.989Z,2775
2016-07-19T10:31:58.990Z,2885
2016-07-19T10:32:58.991Z,2565
2016-07-19T10:33:59.215Z,1330
2016-07-19T10:34:59.862Z,605
2016-07-19T10:35:59.005Z,600
2016-07-19T10:36:58.981Z,650
2016-07-19T10:37:59.188Z,1675
2016-07-19T10:38:58.989Z,2755
2016-07-19T10:39:59.005Z,2880
2016-07-19T10:40:59.182Z,2990
2016-07-19T10:41:59.266Z,2985
2016-07-19T10:42:59.719Z,2940
2016-07-19T10:43:59.220Z,2905
2016-07-19T10:44:58.985Z,2915
2016-07-19T10:45:59.127Z,2880
2016-07-19T10:46:59.692Z,2920
2016-07-19T10:47:59.350Z,2945
2016-07-19T10:48:59.417Z,2945
2016-07-19T10:49:59.001Z,2910
2016-07-19T10:51:00.501Z,2890
2016-07-19T10:51:59.069Z,2905
2016-07-19T10:52:59.119Z,2865
2016-07-19T10:54:01.109Z,2905
2016-07-19T10:54:59.493Z,2850
2016-07-19T10:55:59.030Z,2830
2016-07-19T10:56:59.252Z,2900
2016-07-19T10:57:59.937Z,2865
2016-07-19T10:58:59.019Z,2820
2016-07-19T10:59:59.480Z,2920
2016-07-19T11:01:01.630Z,3030
2016-07-19T11:01:59.023Z,2950
2016-07-19T11:02:59.089Z,2975
2016-07-19T11:03:59.343Z,2870
2016-07-19T11:04:59.465Z,2825
2016-07-19T11:05:59.785Z,2855
2016-07-19T11:07:01.399Z,2950
2016-07-19T11:07:59.068Z,3000
2016-07-19T11:08:59.360Z,3025
2016-07-19T11:09:59.297Z,2975
2016-07-19T11:10:59.754Z,2970
2016-07-19T11:12:00.159Z,3030
2016-07-19T11:12:59.140Z,3010
2016-07-19T11:13:59.067Z,3045
2016-07-19T11:14:59.202Z,3050
2016-07-19T11:15:59.074Z,3135
2016-07-19T11:16:59.357Z,3095
2016-07-19T11:18:01.482Z,2965
2016-07-19T11:18:59.965Z,3045
2016-07-19T11:19:59.102Z,3060
2016-07-19T11:21:00.784Z,3050
2016-07-19T11:22:00.937Z,3030
2016-07-19T11:22:59.691Z,3090
2016-07-19T11:23:59.122Z,3175
2016-07-19T11:25:00.125Z,3170
2016-07-19T11:25:59.521Z,3100
2016-07-19T11:26:59.110Z,2985
2016-07-19T11:27:59.976Z,2970
2016-07-19T11:28:59.209Z,2990
2016-07-19T11:29:59.120Z,3020
2016-07-19T11:30:59.428Z,3070
2016-07-19T11:31:59.224Z,3120
2016-07-19T11:32:59.194Z,3140
2016-07-19T11:33:59.196Z,3080
2016-07-19T11:34:59.909Z,3070
2016-07-19T11:35:59.137Z,3240
2016-07-19T11:36:59.269Z,3275
2016-07-19T11:37:59.510Z,3160
2016-07-19T11:39:00.954Z,3270
2016-07-19T11:39:59.751Z,3385
2016-07-19T11:40:59.481Z,3355
2016-07-19T11:42:00.459Z,3365
2016-07-19T11:42:59.668Z,3420
2016-07-19T11:43:59.715Z,3440
2016-07-19T11:45:00.389Z,3425
2016-07-19T11:45:59.734Z,3355
2016-07-19T11:46:59.733Z,3455
2016-07-19T11:47:59.188Z,3455
2016-07-19T11:48:59.274Z,3225
2016-07-19T11:50:00.344Z,3255
2016-07-19T11:50:59.476Z,3270
2016-07-19T11:51:59.206Z,3320
2016-07-19T11:52:59.212Z,3340
2016-07-19T11:53:59.962Z,3270
2016-07-19T11:54:59.222Z,3185
2016-07-19T11:55:59.520Z,3345
2016-07-19T11:57:00.475Z,3520
2016-07-19T11:57:59.563Z,3620
2016-07-19T11:59:01.814Z,3485
2016-07-19T12:00:00.460Z,3395
2016-07-19T12:01:01.074Z,3330
2016-07-19T12:02:00.587Z,3425
2016-07-19T12:03:00.883Z,3350
2016-07-19T12:03:59.310Z,3355
2016-07-19T12:04:59.935Z,3515
2016-07-19T12:06:01.027Z,3585
2016-07-19T12:07:00.111Z,3580
2016-07-19T12:07:59.874Z,3585
2016-07-19T12:08:59.930Z,3515
2016-07-19T12:09:59.863Z,3495
2016-07-19T12:10:59.730Z,3375
2016-07-19T12:11:59.947Z,3275
2016-07-19T12:12:59.356Z,3290
2016-07-19T12:14:00.404Z,3350
2016-07-19T12:15:00.958Z,3435
2016-07-19T12:16:00.182Z,3590
2016-07-19T12:17:00.014Z,3700
2016-07-19T12:18:01.042Z,3670
2016-07-19T12:19:02.680Z,3770
2016-07-19T12:20:00.399Z,3860
2016-07-19T12:21:00.337Z,3715
2016-07-19T12:22:00.385Z,3690
2016-07-19T12:23:01.954Z,3615
2016-07-19T12:24:00.481Z,3620
2016-07-19T12:24:59.618Z,3595
2016-07-19T12:26:00.905Z,3575
2016-07-19T12:26:59.776Z,3530
2016-07-19T12:27:59.850Z,3515
2016-07-19T12:28:59.918Z,3590
2016-07-19T12:29:59.353Z,3540
2016-07-19T12:30:59.378Z,3685
2016-07-19T12:32:01.648Z,3495
2016-07-19T12:32:59.925Z,3500
2016-07-19T12:33:59.374Z,3465
2016-07-19T12:35:00.899Z,3475
2016-07-19T12:35:59.992Z,3510
2016-07-19T12:36:59.402Z,3565
2016-07-19T12:37:59.568Z,3600
2016-07-19T12:39:00.917Z,3715
2016-07-19T12:40:00.460Z,3645
2016-07-19T12:41:01.135Z,3575
2016-07-19T12:42:00.200Z,3555
2016-07-19T12:43:01.696Z,3625
2016-07-19T12:43:59.502Z,3500
2016-07-19T12:45:00.209Z,3360
2016-07-19T12:46:00.751Z,3410
2016-07-19T12:46:59.970Z,3485
2016-07-19T12:48:00.770Z,3475
2016-07-19T12:49:01.937Z,3535
2016-07-19T12:50:00.374Z,3685
2016-07-19T12:51:00.088Z,3560
2016-07-19T12:52:01.625Z,3410
2016-07-19T12:53:01.117Z,3430
2016-07-19T12:54:00.811Z,3455
2016-07-19T12:55:00.599Z,3430
2016-07-19T12:56:00.023Z,3435
2016-07-19T12:57:01.066Z,3515
2016-07-19T12:58:00.331Z,3595
2016-07-19T12:58:59.758Z,3525
2016-07-19T13:00:00.311Z,3370
2016-07-19T13:00:59.506Z,3350
2016-07-19T13:01:59.667Z,3410
2016-07-19T13:02:59.591Z,3475
2016-07-19T13:04:00.468Z,3495
2016-07-19T13:05:01.660Z,3485
2016-07-19T13:06:01.724Z,3395
2016-07-19T13:07:01.031Z,3475
2016-07-19T13:07:59.850Z,3435
2016-07-19T13:09:00.225Z,3475
2016-07-19T13:10:00.001Z,3425
2016-07-19T13:11:00.510Z,3330
2016-07-19T13:11:59.899Z,3340
2016-07-19T13:13:00.507Z,3475
2016-07-19T13:13:59.783Z,3460
2016-07-19T13:15:00.399Z,3350
2016-07-19T13:16:02.193Z,3415
2016-07-19T13:17:01.737Z,3495
2016-07-19T13:18:00.436Z,3525
2016-07-19T13:18:59.644Z,3500
2016-07-19T13:20:01.433Z,3450
2016-07-19T13:21:00.677Z,3480
2016-07-19T13:21:59.971Z,3345
2016-07-19T13:22:59.859Z,3345
2016-07-19T13:23:59.986Z,3325
2016-07-19T13:24:59.941Z,3310
2016-07-19T13:25:59.827Z,3340
2016-07-19T13:27:00.494Z,3160
2016-07-19T13:28:02.247Z,3200
2016-07-19T13:29:01.825Z,3275
2016-07-19T13:30:00.708Z,3170
2016-07-19T13:31:00.198Z,3310
2016-07-19T13:31:59.879Z,3335
2016-07-19T13:32:59.712Z,3335
2016-07-19T13:34:01.029Z,3485
2016-07-19T13:34:59.836Z,3495
2016-07-19T13:36:00.428Z,3430
2016-07-19T13:37:00.638Z,3405
2016-07-19T13:38:00.808Z,3425
2016-07-19T13:38:59.905Z,3330
2016-07-19T13:40:00.887Z,3345
2016-07-19T13:41:00.034Z,3325
2016-07-19T13:42:00.327Z,3245
2016-07-19T13:42:59.965Z,3250
2016-07-19T13:44:00.382Z,3270
2016-07-19T13:45:00.112Z,3275
2016-07-19T13:46:00.099Z,3180